createdAt,value
2022-09-28T00:01:47.752Z,9.13
2022-09-28T00:04:14.314Z,7.43
2022-09-28T00:06:40.820Z,9.10
2022-09-28T00:09:07.329Z,8.32
2022-09-28T00:11:36.322Z,11.52
2022-09-28T00:14:03.771Z,8.50
2022-09-28T00:16:32.214Z,9.20
2022-09-28T00:18:58.830Z,10.88
2022-09-28T00:21:26.991Z,10.30
2022-09-28T00:24:12.447Z,9.35
2022-09-28T00:26:51.741Z,9.02
2022-09-28T00:29:23.599Z,7.95
2022-09-28T00:31:54.730Z,8.07
2022-09-28T00:34:21.293Z,10.10
2022-09-28T00:36:48.284Z,9.25
2022-09-28T00:39:15.679Z,9.00
2022-09-28T00:41:42.764Z,9.13
2022-09-28T00:44:24.728Z,9.65
2022-09-28T00:46:53.702Z,8.82
2022-09-28T00:49:21.948Z,12.25
2022-09-28T00:51:48.815Z,9.70
2022-09-28T00:54:16.462Z,9.07
2022-09-28T00:56:43.918Z,12.27
2022-09-28T00:59:10.925Z,9.93
2022-09-28T01:01:37.952Z,9.05
2022-09-28T01:04:05.758Z,9.40
2022-09-28T01:06:33.373Z,10.43
2022-09-28T01:09:02.509Z,8.98
2022-09-28T01:11:31.280Z,10.43
2022-09-28T01:13:59.448Z,9.73
2022-09-28T01:16:44.670Z,11.05
2022-09-28T01:19:32.639Z,8.30
2022-09-28T01:22:06.152Z,10.70
2022-09-28T01:24:43.354Z,9.70
2022-09-28T01:27:28.481Z,13.00
2022-09-28T01:30:01.683Z,9.35
2022-09-28T01:32:47.453Z,11.23
2022-09-28T01:35:17.481Z,9.82
2022-09-28T01:37:43.936Z,12.35
2022-09-28T01:40:11.980Z,11.05
2022-09-28T01:42:39.939Z,11.68
2022-09-28T01:45:09.518Z,10.80
2022-09-28T01:47:39.348Z,11.35
2022-09-28T01:50:10.104Z,12.65
2022-09-28T01:52:41.548Z,11.50
2022-09-28T01:55:16.894Z,10.82
2022-09-28T01:57:46.000Z,11.37
2022-09-28T02:00:14.141Z,11.88
2022-09-28T02:02:48.382Z,11.27
2022-09-28T02:05:27.281Z,11.00
2022-09-28T02:08:00.140Z,12.80
2022-09-28T02:10:29.324Z,9.63
2022-09-28T02:13:25.125Z,11.55
2022-09-28T02:15:53.332Z,12.45
2022-09-28T02:18:22.466Z,13.05
2022-09-28T02:21:04.752Z,12.32
2022-09-28T02:23:33.735Z,11.75
2022-09-28T02:26:08.361Z,11.43
2022-09-28T02:28:34.780Z,11.18
2022-09-28T02:31:01.179Z,13.02
2022-09-28T02:33:34.052Z,11.57
2022-09-28T02:36:00.817Z,11.50
2022-09-28T02:38:28.609Z,11.77
2022-09-28T02:41:02.537Z,12.50
2022-09-28T02:43:38.546Z,11.70
2022-09-28T02:46:10.794Z,11.63
2022-09-28T02:49:04.978Z,11.30
2022-09-28T02:51:46.545Z,11.52
2022-09-28T02:54:34.190Z,14.07
2022-09-28T02:57:08.920Z,11.85
2022-09-28T02:59:54.596Z,13.57
2022-09-28T03:02:27.715Z,12.02
2022-09-28T03:04:54.142Z,12.50
2022-09-28T03:07:32.704Z,15.00
2022-09-28T03:10:05.749Z,15.63
2022-09-28T03:12:33.333Z,14.95
2022-09-28T03:15:06.600Z,13.82
2022-09-28T03:17:32.914Z,14.40
2022-09-28T03:20:01.582Z,14.73
2022-09-28T03:22:27.939Z,13.55
2022-09-28T03:24:54.435Z,12.77
2022-09-28T03:27:20.970Z,13.77
2022-09-28T03:29:47.319Z,15.00
2022-09-28T03:32:13.701Z,12.27
2022-09-28T03:34:40.062Z,13.07
2022-09-28T03:37:06.404Z,15.38
2022-09-28T03:39:32.732Z,14.02
2022-09-28T03:42:02.456Z,13.70
2022-09-28T03:44:30.325Z,13.25
2022-09-28T03:46:56.735Z,13.90
2022-09-28T03:49:23.075Z,12.20
2022-09-28T03:51:49.473Z,14.57
2022-09-28T03:54:15.888Z,14.85
2022-09-28T03:56:42.343Z,12.68
2022-09-28T03:59:09.006Z,11.95
2022-09-28T04:01:35.912Z,18.60
2022-09-28T04:04:02.376Z,15.35
2022-09-28T04:06:28.879Z,13.93
2022-09-28T04:08:55.337Z,11.52
2022-09-28T04:11:21.758Z,13.50
2022-09-28T04:13:50.163Z,12.40
2022-09-28T04:16:17.953Z,13.80
2022-09-28T04:18:44.551Z,18.65
2022-09-28T04:21:12.182Z,12.90
2022-09-28T04:23:39.308Z,13.35
2022-09-28T04:26:06.671Z,12.63
2022-09-28T04:28:51.441Z,12.57
2022-09-28T04:31:22.708Z,16.23
2022-09-28T04:33:49.144Z,13.23
2022-09-28T04:36:15.595Z,12.75
2022-09-28T04:38:58.828Z,12.10
2022-09-28T04:41:25.316Z,13.45
2022-09-28T04:43:51.835Z,14.57
2022-09-28T04:46:18.666Z,15.20
2022-09-28T04:48:47.845Z,15.48
2022-09-28T04:51:16.829Z,14.27
2022-09-28T04:53:43.259Z,13.30
2022-09-28T04:56:13.729Z,14.65
2022-09-28T04:58:40.548Z,14.85
2022-09-28T05:01:08.522Z,16.40
2022-09-28T05:03:35.421Z,14.40
2022-09-28T05:06:02.062Z,16.63
2022-09-28T05:08:28.535Z,16.70
2022-09-28T05:11:00.026Z,16.08
2022-09-28T05:13:28.100Z,17.38
2022-09-28T05:15:58.845Z,17.27
2022-09-28T05:18:27.357Z,14.05
2022-09-28T05:20:53.745Z,13.57
2022-09-28T05:23:20.162Z,14.18
2022-09-28T05:25:46.594Z,13.38
2022-09-28T05:28:12.974Z,14.63
2022-09-28T05:30:46.750Z,15.07
2022-09-28T05:33:13.101Z,15.00
2022-09-28T05:35:39.445Z,14.00
2022-09-28T05:38:05.834Z,13.55
2022-09-28T05:40:33.653Z,14.23
2022-09-28T05:43:01.610Z,13.52
2022-09-28T05:45:28.973Z,18.70
2022-09-28T05:47:55.398Z,16.27
2022-09-28T05:50:21.875Z,15.55
2022-09-28T05:52:56.838Z,13.30
2022-09-28T05:55:23.330Z,22.98
2022-09-28T05:57:49.703Z,15.63
2022-09-28T06:00:16.122Z,17.67
2022-09-28T06:02:42.571Z,13.77
2022-09-28T06:05:09.230Z,16.17
2022-09-28T06:07:35.610Z,14.38
2022-09-28T06:10:02.121Z,15.50
2022-09-28T06:12:28.533Z,11.93
2022-09-28T06:14:55.418Z,13.43
2022-09-28T06:17:21.769Z,12.07
2022-09-28T06:19:48.104Z,10.73
2022-09-28T06:22:14.449Z,9.38
2022-09-28T06:24:41.291Z,11.45
2022-09-28T06:27:07.677Z,8.98
2022-09-28T06:29:34.218Z,7.22
2022-09-28T06:32:01.320Z,7.72
2022-09-28T06:34:27.729Z,11.13
2022-09-28T06:36:54.077Z,7.43
2022-09-28T06:39:20.463Z,7.53
2022-09-28T06:41:47.201Z,6.75
2022-09-28T06:44:13.698Z,6.78
2022-09-28T06:46:40.214Z,7.05
2022-09-28T06:49:09.688Z,6.55
2022-09-28T06:51:36.772Z,8.07
2022-09-28T06:54:03.454Z,6.88
2022-09-28T06:56:32.950Z,7.38
2022-09-28T06:58:59.620Z,6.60
2022-09-28T07:01:26.122Z,5.70
2022-09-28T07:03:55.640Z,6.30
2022-09-28T07:06:24.231Z,6.00
2022-09-28T07:09:01.525Z,6.53
2022-09-28T07:11:44.436Z,6.18
2022-09-28T07:14:25.517Z,7.00
2022-09-28T07:17:12.455Z,9.23
2022-09-28T07:19:40.335Z,5.97
2022-09-28T07:22:06.680Z,5.95
2022-09-28T07:24:33.255Z,5.80
2022-09-28T07:26:59.688Z,5.70
2022-09-28T07:29:26.203Z,5.82
2022-09-28T07:31:53.488Z,6.10
2022-09-28T07:34:24.065Z,5.60
2022-09-28T07:36:51.914Z,6.55
2022-09-28T07:39:18.551Z,8.32
2022-09-28T07:41:45.093Z,6.43
2022-09-28T07:44:11.995Z,7.18
2022-09-28T07:46:38.456Z,5.10
2022-09-28T07:49:08.488Z,5.97
2022-09-28T07:51:37.978Z,6.78
2022-09-28T07:54:06.869Z,6.70
2022-09-28T07:56:35.235Z,7.20
2022-09-28T07:59:02.698Z,5.47
2022-09-28T08:01:30.719Z,5.70
2022-09-28T08:03:57.201Z,5.22
2022-09-28T08:06:23.626Z,4.68
2022-09-28T08:08:50.416Z,5.45
2022-09-28T08:11:20.122Z,5.22
2022-09-28T08:13:47.649Z,6.43
2022-09-28T08:16:14.116Z,5.70
2022-09-28T08:18:41.016Z,4.50
2022-09-28T08:21:26.155Z,5.32
2022-09-28T08:23:53.042Z,5.38
2022-09-28T08:26:19.558Z,5.13
2022-09-28T08:28:47.728Z,7.40
2022-09-28T08:31:14.306Z,6.90
2022-09-28T08:33:41.951Z,5.70
2022-09-28T08:36:11.753Z,6.47
2022-09-28T08:38:38.141Z,5.90
2022-09-28T08:41:23.326Z,4.70
2022-09-28T08:44:00.222Z,5.47
2022-09-28T08:46:29.335Z,6.80
2022-09-28T08:49:23.834Z,7.03
2022-09-28T08:51:53.137Z,4.55
2022-09-28T08:54:45.695Z,5.35
2022-09-28T08:57:18.868Z,7.63
2022-09-28T08:59:56.070Z,5.65
2022-09-28T09:02:28.101Z,5.65
2022-09-28T09:04:57.009Z,4.70
2022-09-28T09:07:41.998Z,7.05
2022-09-28T09:10:30.145Z,5.82
2022-09-28T09:13:03.153Z,4.65
2022-09-28T09:15:39.601Z,4.18
2022-09-28T09:18:09.295Z,4.60
2022-09-28T09:20:43.866Z,2.58
2022-09-28T09:23:18.028Z,4.88
2022-09-28T09:25:48.456Z,5.18
2022-09-28T09:28:33.455Z,5.38
2022-09-28T09:31:05.539Z,4.80
2022-09-28T09:33:53.542Z,4.45
2022-09-28T09:36:47.289Z,5.60
2022-09-28T09:39:22.154Z,4.93
2022-09-28T09:41:57.864Z,5.15
2022-09-28T09:44:24.549Z,5.18
2022-09-28T09:46:54.163Z,3.67
2022-09-28T09:49:30.514Z,3.83
2022-09-28T09:52:06.447Z,2.92
2022-09-28T09:57:01.681Z,5.88
2022-09-28T09:59:33.774Z,5.30
2022-09-28T10:02:03.842Z,4.97
2022-09-28T10:04:34.876Z,4.15
2022-09-28T10:07:03.500Z,6.45
2022-09-28T10:09:41.378Z,3.03
2022-09-28T10:12:09.559Z,5.10
2022-09-28T10:14:36.142Z,7.07
2022-09-28T10:17:03.895Z,3.90
2022-09-28T10:19:34.784Z,3.80
2022-09-28T10:22:03.605Z,3.97
2022-09-28T10:24:39.371Z,3.60
2022-09-28T10:27:11.444Z,2.40
2022-09-28T10:29:44.065Z,4.05
2022-09-28T10:32:21.184Z,2.70
2022-09-28T10:34:50.330Z,3.70
2022-09-28T10:37:18.203Z,3.38
2022-09-28T10:39:46.861Z,2.67
2022-09-28T10:42:18.106Z,3.40
2022-09-28T10:44:53.414Z,2.28
2022-09-28T10:47:20.940Z,3.35
2022-09-28T10:49:49.297Z,3.00
2022-09-28T10:52:34.230Z,4.80
2022-09-28T10:55:01.126Z,3.72
2022-09-28T10:57:35.248Z,4.03
2022-09-28T11:00:02.588Z,7.22
2022-09-28T11:02:36.214Z,4.57
2022-09-28T11:05:04.481Z,4.38
2022-09-28T11:07:32.263Z,4.40
2022-09-28T11:09:59.992Z,3.05
2022-09-28T11:12:40.021Z,3.95
2022-09-28T11:15:07.629Z,2.58
2022-09-28T11:17:38.662Z,2.72
2022-09-28T11:20:26.100Z,2.92
2022-09-28T11:22:55.688Z,4.03
2022-09-28T11:25:24.182Z,5.53
2022-09-28T11:27:50.491Z,3.67
2022-09-28T11:30:24.386Z,3.63
2022-09-28T11:32:53.142Z,4.10
2022-09-28T11:35:34.113Z,3.63
2022-09-28T11:38:12.699Z,4.43
2022-09-28T11:41:02.578Z,3.92
2022-09-28T11:43:35.071Z,4.65
2022-09-28T11:46:04.831Z,4.10
2022-09-28T11:48:40.730Z,3.58
2022-09-28T11:51:12.864Z,4.85
2022-09-28T11:53:42.395Z,4.90
2022-09-28T11:56:18.877Z,6.20
2022-09-28T11:58:50.306Z,6.43
2022-09-28T12:01:24.225Z,5.85
2022-09-28T12:03:53.067Z,4.93
2022-09-28T12:06:22.268Z,4.85
2022-09-28T12:08:54.324Z,5.55
2022-09-28T12:11:25.257Z,7.25
2022-09-28T12:13:54.111Z,4.82
2022-09-28T12:16:53.027Z,5.80
2022-09-28T12:19:19.333Z,4.68
2022-09-28T12:21:48.419Z,5.28
2022-09-28T12:24:17.605Z,5.03
2022-09-28T12:26:43.944Z,6.10
2022-09-28T12:29:13.806Z,5.07
2022-09-28T12:32:03.147Z,5.85
2022-09-28T12:34:29.566Z,6.30
2022-09-28T12:37:12.106Z,5.65
2022-09-28T12:39:57.845Z,4.78
2022-09-28T12:42:53.726Z,6.10
2022-09-28T12:45:43.045Z,10.73
2022-09-28T12:48:38.200Z,7.00
2022-09-28T12:51:16.837Z,6.43
2022-09-28T12:53:55.509Z,4.93
2022-09-28T12:56:21.926Z,5.30
2022-09-28T12:59:06.850Z,5.93
2022-09-28T13:01:49.904Z,6.50
2022-09-28T13:04:28.212Z,6.90
2022-09-28T13:06:57.697Z,5.82
2022-09-28T13:09:27.392Z,10.77
2022-09-28T13:11:59.439Z,6.45
2022-09-28T13:14:34.956Z,9.20
2022-09-28T13:17:22.583Z,6.97
2022-09-28T13:20:18.307Z,5.70
2022-09-28T13:22:44.656Z,5.45
2022-09-28T13:25:16.946Z,6.75
2022-09-28T13:27:48.193Z,4.63
2022-09-28T13:30:16.046Z,5.72
2022-09-28T13:32:43.664Z,5.57
2022-09-28T13:35:19.519Z,5.70
2022-09-28T13:37:46.056Z,5.90
2022-09-28T13:40:12.451Z,9.70
2022-09-28T13:42:45.376Z,7.07
2022-09-28T13:45:21.275Z,5.97
2022-09-28T13:47:47.661Z,7.03
2022-09-28T13:50:14.007Z,7.88
2022-09-28T13:52:50.662Z,7.43
2022-09-28T13:55:17.130Z,8.07
2022-09-28T13:57:49.614Z,6.55
2022-09-28T14:00:18.926Z,7.13
2022-09-28T14:02:48.003Z,9.82
2022-09-28T14:05:23.407Z,7.50
2022-09-28T14:08:05.016Z,8.65
2022-09-28T14:10:51.925Z,9.05
2022-09-28T14:13:37.193Z,5.28
2022-09-28T14:16:23.142Z,6.80
2022-09-28T14:18:56.027Z,5.57
2022-09-28T14:21:36.738Z,5.05
2022-09-28T14:24:12.957Z,2.83
2022-09-28T14:29:15.864Z,5.43
2022-09-28T14:31:43.685Z,4.93
2022-09-28T14:34:23.958Z,8.50
2022-09-28T14:37:08.971Z,7.20
2022-09-28T14:39:55.042Z,6.57
2022-09-28T14:42:25.364Z,8.40
2022-09-28T14:45:06.815Z,7.65
2022-09-28T14:47:38.166Z,9.15
2022-09-28T14:50:23.410Z,6.97
2022-09-28T14:52:53.565Z,6.95
2022-09-28T14:55:27.673Z,7.65
2022-09-28T14:57:56.777Z,7.45
2022-09-28T15:00:26.393Z,6.18
2022-09-28T15:02:54.257Z,7.60
2022-09-28T15:05:26.877Z,4.93
2022-09-28T15:07:54.386Z,7.78
2022-09-28T15:10:27.920Z,10.05
2022-09-28T15:12:56.066Z,8.77
2022-09-28T15:15:28.438Z,11.95
2022-09-28T15:18:02.291Z,11.82
2022-09-28T15:20:30.438Z,8.93
2022-09-28T15:22:58.446Z,9.07
2022-09-28T15:25:28.853Z,3.38
2022-09-28T15:27:56.452Z,7.97
2022-09-28T15:30:25.363Z,6.00
2022-09-28T15:32:54.618Z,6.45
2022-09-28T15:35:22.060Z,10.20
2022-09-28T15:37:52.146Z,10.27
2022-09-28T15:40:31.672Z,8.25
2022-09-28T15:42:59.449Z,7.68
2022-09-28T15:45:36.676Z,8.75
2022-09-28T15:48:18.555Z,7.45
2022-09-28T15:50:57.045Z,8.25
2022-09-28T15:53:23.424Z,7.32
2022-09-28T15:55:50.096Z,6.28
2022-09-28T15:58:20.438Z,7.53
2022-09-28T16:00:48.148Z,6.00
2022-09-28T16:03:17.287Z,8.05
2022-09-28T16:05:46.210Z,6.15
2022-09-28T16:08:26.318Z,7.10
2022-09-28T16:10:58.874Z,5.80
2022-09-28T16:13:25.873Z,7.38
2022-09-28T16:15:59.831Z,5.85
2022-09-28T16:18:27.132Z,6.75
2022-09-28T16:20:54.443Z,7.85
2022-09-28T16:23:24.196Z,6.03
2022-09-28T16:26:05.162Z,7.07
2022-09-28T16:28:35.027Z,5.40
2022-09-28T16:31:05.943Z,5.57
2022-09-28T16:33:46.809Z,6.10
2022-09-28T16:36:14.594Z,6.00
2022-09-28T16:38:43.994Z,7.22
2022-09-28T16:41:11.158Z,7.60
2022-09-28T16:43:37.552Z,9.30
2022-09-28T16:46:09.492Z,12.90
2022-09-28T16:48:39.432Z,9.10
2022-09-28T16:51:05.818Z,10.27
2022-09-28T16:53:50.672Z,9.43
2022-09-28T16:56:17.035Z,10.23
2022-09-28T16:58:44.201Z,11.73
2022-09-28T17:01:11.609Z,12.32
2022-09-28T17:03:38.088Z,9.07
2022-09-28T17:06:06.248Z,9.10
2022-09-28T17:08:32.976Z,8.32
2022-09-28T17:11:22.739Z,9.55
2022-09-28T17:13:48.853Z,7.30
2022-09-28T17:16:32.214Z,9.32
2022-09-28T17:19:16.167Z,8.18
2022-09-28T17:21:42.517Z,7.85
2022-09-28T17:24:08.862Z,8.00
2022-09-28T17:26:36.079Z,8.13
2022-09-28T17:29:02.611Z,8.27
2022-09-28T17:31:30.013Z,8.30
2022-09-28T17:33:56.632Z,8.68
2022-09-28T17:36:23.036Z,9.57
2022-09-28T17:38:51.686Z,8.60
2022-09-28T17:41:20.704Z,10.88
2022-09-28T17:43:47.457Z,10.27
2022-09-28T17:46:27.926Z,10.80
2022-09-28T17:48:54.836Z,9.77
2022-09-28T17:51:22.529Z,10.20
2022-09-28T17:53:49.170Z,10.25
2022-09-28T17:56:15.546Z,8.70
2022-09-28T17:58:41.894Z,11.25
2022-09-28T18:01:09.263Z,8.82
2022-09-28T18:03:35.660Z,9.02
2022-09-28T18:06:06.636Z,9.45
2022-09-28T18:08:33.622Z,10.95
2022-09-28T18:11:01.666Z,10.15
2022-09-28T18:13:28.160Z,9.55
2022-09-28T18:15:55.416Z,10.57
2022-09-28T18:18:22.836Z,10.00
2022-09-28T18:20:49.377Z,9.30
2022-09-28T18:23:15.754Z,12.35
2022-09-28T18:25:43.454Z,10.68
2022-09-28T18:28:10.541Z,10.23
2022-09-28T18:30:40.985Z,10.05
2022-09-28T18:33:08.116Z,13.48
2022-09-28T18:35:34.917Z,10.18
2022-09-28T18:38:01.386Z,10.38
2022-09-28T18:40:27.886Z,10.57
2022-09-28T18:42:55.748Z,10.80
2022-09-28T18:45:22.122Z,10.90
2022-09-28T18:47:48.534Z,9.07
2022-09-28T18:50:19.186Z,10.07
2022-09-28T18:52:47.244Z,11.18
2022-09-28T18:55:13.762Z,9.80
2022-09-28T18:57:41.511Z,10.85
2022-09-28T19:00:09.815Z,10.25
2022-09-28T19:02:36.594Z,9.05
2022-09-28T19:05:03.600Z,9.25
2022-09-28T19:07:31.374Z,8.38
2022-09-28T19:09:57.789Z,8.73
2022-09-28T19:12:24.226Z,10.57
2022-09-28T19:14:50.599Z,10.65
2022-09-28T19:17:20.521Z,9.45
2022-09-28T19:19:46.956Z,13.38
2022-09-28T19:22:13.381Z,8.55
2022-09-28T19:24:40.001Z,10.75
2022-09-28T19:27:06.376Z,9.90
2022-09-28T19:29:32.812Z,9.85
2022-09-28T19:31:59.343Z,8.73
2022-09-28T19:34:30.038Z,11.10
2022-09-28T19:36:57.082Z,9.68
2022-09-28T19:39:23.509Z,10.48
2022-09-28T19:41:52.248Z,9.43
2022-09-28T19:44:26.774Z,9.38
2022-09-28T19:46:55.377Z,8.68
2022-09-28T19:49:22.649Z,8.45
2022-09-28T19:54:39.652Z,10.52
2022-09-28T19:57:08.049Z,11.43
2022-09-28T19:59:35.638Z,8.27
2022-09-28T20:02:02.129Z,7.28
2022-09-28T20:04:28.910Z,8.85
2022-09-28T20:06:55.306Z,9.05
2022-09-28T20:09:21.761Z,10.82
2022-09-28T20:11:48.601Z,7.55
2022-09-28T20:14:18.650Z,8.32
2022-09-28T20:16:46.285Z,7.40
2022-09-28T20:19:13.010Z,9.15
2022-09-28T20:21:40.399Z,10.38
2022-09-28T20:24:06.887Z,8.77
2022-09-28T20:26:37.820Z,8.30
2022-09-28T20:29:07.602Z,8.77
2022-09-28T20:31:38.234Z,7.85
2022-09-28T20:34:05.389Z,9.20
2022-09-28T20:36:32.188Z,10.25
2022-09-28T20:39:01.888Z,10.93
2022-09-28T20:41:29.831Z,10.68
2022-09-28T20:43:59.628Z,9.30
2022-09-28T20:46:29.359Z,12.93
2022-09-28T20:48:58.018Z,9.93
2022-09-28T20:51:24.448Z,10.73
2022-09-28T20:53:55.054Z,8.88
2022-09-28T20:56:34.535Z,10.98
2022-09-28T20:59:01.658Z,11.18
2022-09-28T21:01:30.013Z,9.80
2022-09-28T21:03:57.777Z,11.55
2022-09-28T21:06:30.694Z,12.43
2022-09-28T21:08:57.701Z,12.75
2022-09-28T21:11:24.792Z,15.90
2022-09-28T21:13:58.123Z,13.48
2022-09-28T21:16:24.918Z,13.77
2022-09-28T21:18:51.614Z,13.43
2022-09-28T21:21:19.057Z,10.50
2022-09-28T21:23:45.488Z,16.52
2022-09-28T21:26:13.325Z,10.52
2022-09-28T21:28:39.888Z,16.25
2022-09-28T21:31:07.804Z,12.13
2022-09-28T21:33:34.942Z,13.95
2022-09-28T21:36:05.356Z,13.88
2022-09-28T21:38:33.098Z,12.05
2022-09-28T21:40:59.991Z,13.90
2022-09-28T21:43:27.361Z,15.93
2022-09-28T21:45:54.550Z,19.20
2022-09-28T21:48:22.000Z,17.75
2022-09-28T21:50:58.591Z,14.45
2022-09-28T21:53:26.017Z,15.30
2022-09-28T21:55:53.138Z,15.13
2022-09-28T21:58:25.834Z,14.25
2022-09-28T22:00:58.256Z,17.40
2022-09-28T22:03:25.756Z,17.35
2022-09-28T22:05:52.462Z,14.23
2022-09-28T22:08:19.625Z,15.50
2022-09-28T22:10:46.254Z,14.00
2022-09-28T22:13:12.698Z,14.10
2022-09-28T22:15:39.402Z,20.90
2022-09-28T22:18:05.783Z,12.95
2022-09-28T22:20:32.106Z,12.00
2022-09-28T22:22:58.474Z,13.35
2022-09-28T22:25:24.846Z,14.32
2022-09-28T22:27:52.564Z,13.15
2022-09-28T22:30:19.005Z,13.75
2022-09-28T22:32:45.381Z,16.80
2022-09-28T22:35:11.989Z,13.52
2022-09-28T22:37:38.588Z,11.85
2022-09-28T22:40:05.295Z,12.55
2022-09-28T22:42:32.757Z,12.27
2022-09-28T22:44:59.093Z,14.00
2022-09-28T22:47:25.439Z,13.00
2022-09-28T22:49:51.869Z,13.05
2022-09-28T22:52:18.185Z,11.65
2022-09-28T22:54:45.575Z,16.15
2022-09-28T22:57:12.326Z,13.63
2022-09-28T22:59:38.699Z,13.05
2022-09-28T23:02:05.164Z,11.88
2022-09-28T23:04:31.952Z,10.93
2022-09-28T23:06:58.358Z,11.98
2022-09-28T23:09:24.677Z,14.27
2022-09-28T23:11:51.178Z,14.07
2022-09-28T23:14:17.521Z,14.70
2022-09-28T23:16:43.886Z,12.45
2022-09-28T23:19:10.289Z,13.57
2022-09-28T23:21:37.177Z,16.15
2022-09-28T23:24:03.609Z,15.43
2022-09-28T23:26:31.455Z,16.38
2022-09-28T23:29:00.843Z,13.40
2022-09-28T23:31:31.111Z,11.60
2022-09-28T23:33:58.891Z,10.13
2022-09-28T23:36:29.199Z,11.93
2022-09-28T23:38:55.735Z,10.82
2022-09-28T23:41:22.172Z,11.25
2022-09-28T23:43:48.533Z,13.82
2022-09-28T23:46:20.275Z,11.57
2022-09-28T23:48:47.185Z,10.93
2022-09-28T23:51:13.618Z,10.85
2022-09-28T23:53:39.943Z,10.75
2022-09-28T23:56:06.348Z,10.98
2022-09-28T23:58:32.696Z,9.93
